Time;durP1;ratioP1;P1;durP2;ratioP2;P2;SDS_P1;SDS_P2;PMS_P1;PMS_P2;Temp;Humidity;BMP_temperature;BMP_pressure;BME280_temperature;BME280_humidity;BME280_pressure;Samples;Min_cycle;Max_cycle;Signal;HPM_P1;HPM_P2
2022/09/08 00:00:44;;;;;;;5.00;2.80;;;17.50;99.90;;;;;;4992733;28;20518;-63
2022/09/08 00:03:12;;;;;;;3.83;2.60;;;17.50;99.90;;;;;;4992481;28;20434;-63
2022/09/08 00:05:57;;;;;;;9.33;3.47;;;17.50;99.90;;;;;;4992933;28;20426;-63
2022/09/08 00:08:24;;;;;;;4.00;2.20;;;17.50;99.90;;;;;;5005947;28;20899;-63
2022/09/08 00:10:53;;;;;;;7.80;2.97;;;17.50;99.90;;;;;;5005234;28;20422;-63
2022/09/08 00:13:20;;;;;;;4.23;2.03;;;17.50;99.90;;;;;;4992147;28;20451;-63
2022/09/08 00:15:46;;;;;;;3.67;2.10;;;17.60;99.90;;;;;;4992762;28;20436;-63
2022/09/08 00:18:13;;;;;;;6.53;2.17;;;17.50;99.90;;;;;;5012031;28;20969;-63
2022/09/08 00:20:39;;;;;;;5.50;2.40;;;17.50;99.90;;;;;;5012227;28;20440;-63
2022/09/08 00:23:04;;;;;;;4.97;3.03;;;17.50;99.90;;;;;;5011903;28;20946;-63
2022/09/08 00:25:30;;;;;;;4.47;2.60;;;17.50;99.90;;;;;;5012173;28;20517;-63
2022/09/08 00:27:56;;;;;;;5.33;3.10;;;17.50;99.90;;;;;;5005485;28;20183;-63
2022/09/08 00:30:21;;;;;;;5.50;2.83;;;17.50;99.90;;;;;;5005711;28;20190;-63
2022/09/08 00:32:47;;;;;;;6.80;2.17;;;17.50;99.90;;;;;;4998421;28;20187;-63
2022/09/08 00:35:14;;;;;;;5.57;2.40;;;17.50;99.90;;;;;;5011987;28;20195;-63
2022/09/08 00:37:43;;;;;;;4.30;2.30;;;17.40;99.90;;;;;;5012077;28;20209;-64
2022/09/08 00:40:09;;;;;;;3.27;2.17;;;17.40;99.90;;;;;;5011014;28;20429;-63
2022/09/08 00:42:35;;;;;;;6.80;3.00;;;17.40;99.90;;;;;;5005949;28;20477;-63
2022/09/08 00:45:01;;;;;;;11.00;2.97;;;17.40;99.90;;;;;;5005162;28;20418;-63
2022/09/08 00:47:36;;;;;;;3.73;2.10;;;17.30;99.90;;;;;;4992389;28;20230;-63
2022/09/08 00:50:06;;;;;;;3.30;2.30;;;17.30;99.90;;;;;;4994280;28;20187;-63
2022/09/08 00:52:43;;;;;;;5.60;2.10;;;17.30;99.90;;;;;;5002627;28;20751;-63
2022/09/08 00:55:10;;;;;;;5.40;2.43;;;17.30;99.90;;;;;;4992475;28;20513;-63
2022/09/08 00:57:36;;;;;;;3.53;2.33;;;17.30;99.90;;;;;;4995601;28;20505;-63
2022/09/08 01:00:04;;;;;;;5.80;1.87;;;17.20;99.90;;;;;;4992331;28;20462;-64
2022/09/08 01:02:30;;;;;;;7.70;2.53;;;17.20;99.90;;;;;;4991806;28;20188;-63
2022/09/08 01:05:06;;;;;;;5.43;2.70;;;17.20;99.90;;;;;;4992142;28;20506;-63
2022/09/08 01:14:10;;;;;;;2.50;1.63;;;17.20;99.90;;;;;;5005745;28;20441;-63
2022/09/08 01:16:42;;;;;;;3.80;2.53;;;17.20;99.90;;;;;;5012110;28;20430;-63
2022/09/08 01:19:19;;;;;;;3.00;1.83;;;17.10;99.90;;;;;;5011809;28;20954;-63
2022/09/08 01:22:13;;;;;;;11.70;2.60;;;17.20;99.90;;;;;;5011406;28;20414;-63
2022/09/08 01:25:06;;;;;;;2.57;1.50;;;17.10;99.90;;;;;;5001592;28;20414;-63
2022/09/08 01:27:33;;;;;;;6.60;1.73;;;17.10;99.90;;;;;;5014944;28;20450;-63
2022/09/08 01:30:02;;;;;;;2.70;1.63;;;17.00;99.90;;;;;;5015428;28;20418;-63
2022/09/08 01:32:31;;;;;;;2.90;1.43;;;17.00;99.90;;;;;;5014775;28;20449;-63
2022/09/08 01:34:57;;;;;;;2.80;1.57;;;17.00;99.90;;;;;;5015007;28;20911;-63
2022/09/08 01:37:23;;;;;;;2.40;1.43;;;17.00;99.90;;;;;;5014952;28;20421;-63
2022/09/08 01:39:49;;;;;;;2.63;1.17;;;17.10;99.90;;;;;;5014766;28;20414;-63
2022/09/08 01:42:14;;;;;;;8.53;1.30;;;17.00;99.90;;;;;;5000979;28;20233;-63
2022/09/08 01:44:40;;;;;;;3.63;1.40;;;17.00;99.90;;;;;;5011423;28;20203;-63
2022/09/08 01:47:06;;;;;;;2.20;0.93;;;17.00;99.90;;;;;;5009774;28;20219;-63
2022/09/08 01:49:31;;;;;;;2.77;1.13;;;16.90;99.90;;;;;;4995465;28;20183;-63
2022/09/08 01:51:57;;;;;;;2.90;1.17;;;17.00;99.90;;;;;;4994726;28;20559;-63
2022/09/08 01:54:23;;;;;;;2.23;1.10;;;16.90;99.90;;;;;;4995470;28;20649;-64
2022/09/08 01:56:48;;;;;;;11.23;1.50;;;16.90;99.90;;;;;;4999083;28;20210;-63
2022/09/08 01:59:14;;;;;;;1.87;0.87;;;16.90;99.90;;;;;;4994928;28;20326;-63
2022/09/08 02:01:40;;;;;;;2.43;1.10;;;16.90;99.90;;;;;;4994566;28;20529;-63
2022/09/08 02:04:06;;;;;;;4.37;1.20;;;16.80;99.90;;;;;;4995169;28;20262;-63
2022/09/08 02:06:32;;;;;;;5.93;1.23;;;16.70;99.90;;;;;;4994983;28;20176;-63
2022/09/08 02:08:58;;;;;;;2.30;1.13;;;16.70;99.90;;;;;;4995121;28;20523;-63
2022/09/08 02:11:23;;;;;;;3.03;1.00;;;16.70;99.90;;;;;;4994522;28;20283;-63
2022/09/08 02:13:49;;;;;;;3.33;1.13;;;16.60;99.90;;;;;;5006142;28;20555;-64
2022/09/08 02:16:15;;;;;;;3.57;1.00;;;16.50;99.90;;;;;;4997147;28;20192;-63
2022/09/08 02:18:40;;;;;;;1.60;0.80;;;16.50;99.90;;;;;;4994878;28;20210;-63
2022/09/08 02:21:09;;;;;;;2.47;0.90;;;16.40;99.90;;;;;;4994232;28;20691;-63
2022/09/08 02:23:37;;;;;;;1.50;0.80;;;16.40;99.90;;;;;;4994859;28;20175;-63
2022/09/08 02:26:03;;;;;;;2.07;1.00;;;16.30;99.90;;;;;;4994613;28;20875;-63
2022/09/08 02:28:30;;;;;;;2.90;1.10;;;16.30;99.90;;;;;;4994320;28;20549;-64
2022/09/08 02:31:02;;;;;;;2.37;1.17;;;16.30;99.90;;;;;;4994602;28;20456;-64
2022/09/08 02:33:29;;;;;;;2.97;1.07;;;16.20;99.90;;;;;;4994671;28;20427;-64
2022/09/08 02:35:55;;;;;;;2.30;0.90;;;16.20;99.90;;;;;;4993657;28;20789;-63
2022/09/08 02:38:23;;;;;;;1.60;0.70;;;16.20;99.90;;;;;;4994602;28;20467;-63
2022/09/08 02:40:49;;;;;;;1.80;0.67;;;16.20;99.90;;;;;;4993822;28;20213;-64
2022/09/08 02:43:15;;;;;;;1.97;0.93;;;16.20;99.90;;;;;;5004966;28;20473;-64
2022/09/08 02:45:41;;;;;;;4.00;1.30;;;16.20;99.90;;;;;;5010538;28;20446;-64
2022/09/08 02:48:07;;;;;;;1.50;0.60;;;16.20;99.90;;;;;;5001878;28;20195;-63
2022/09/08 02:50:33;;;;;;;2.07;0.70;;;16.10;99.90;;;;;;4994790;28;20431;-64
2022/09/08 02:52:59;;;;;;;2.10;1.00;;;16.10;99.90;;;;;;4993738;28;20194;-64
2022/09/08 02:55:25;;;;;;;1.50;0.73;;;16.10;99.90;;;;;;4994170;28;20782;-64
2022/09/08 02:57:51;;;;;;;1.73;0.90;;;16.10;99.90;;;;;;4997502;28;20754;-64
2022/09/08 03:00:18;;;;;;;3.13;1.50;;;16.00;99.90;;;;;;4994371;28;20922;-63
2022/09/08 03:02:44;;;;;;;1.60;0.60;;;16.10;99.90;;;;;;4998047;28;20171;-63
2022/09/08 03:05:10;;;;;;;1.50;0.80;;;16.00;99.90;;;;;;5013907;28;20448;-63
2022/09/08 03:07:37;;;;;;;1.50;0.70;;;16.00;99.90;;;;;;5013444;28;20198;-63
2022/09/08 03:10:05;;;;;;;1.27;0.50;;;16.00;99.90;;;;;;5013409;28;20792;-66
2022/09/08 03:12:31;;;;;;;2.10;1.00;;;16.00;99.90;;;;;;5012547;28;20438;-66
2022/09/08 03:14:57;;;;;;;5.17;0.90;;;16.00;99.90;;;;;;5006780;28;20411;-67
2022/09/08 03:17:23;;;;;;;1.60;0.77;;;15.90;99.90;;;;;;5007198;28;20513;-66
2022/09/08 03:19:49;;;;;;;2.67;1.03;;;15.90;99.90;;;;;;5013537;28;20769;-66
2022/09/08 03:22:16;;;;;;;4.77;1.13;;;15.90;99.90;;;;;;5012485;28;20179;-66
2022/09/08 03:24:42;;;;;;;1.60;0.77;;;16.00;99.90;;;;;;5013136;28;20432;-66
2022/09/08 03:27:08;;;;;;;2.67;1.20;;;15.90;99.90;;;;;;5012806;28;20981;-66
2022/09/08 03:29:34;;;;;;;1.87;0.90;;;15.90;99.90;;;;;;5013185;28;20735;-66
2022/09/08 03:32:00;;;;;;;1.30;0.50;;;15.90;99.90;;;;;;5012538;28;20428;-66
2022/09/08 03:34:26;;;;;;;1.60;0.83;;;15.90;99.90;;;;;;5013083;28;20175;-66
2022/09/08 03:36:52;;;;;;;2.20;1.20;;;15.90;99.90;;;;;;5012520;28;20815;-67
2022/09/08 03:39:18;;;;;;;1.83;0.80;;;15.90;99.90;;;;;;4999156;28;20203;-67
2022/09/08 03:41:43;;;;;;;4.40;0.83;;;15.80;99.90;;;;;;4999396;28;20470;-66
2022/09/08 03:44:09;;;;;;;1.97;0.97;;;15.80;99.90;;;;;;5004905;28;20179;-66
2022/09/08 03:46:35;;;;;;;2.90;0.80;;;15.80;99.90;;;;;;5008761;28;20182;-67
2022/09/08 03:49:01;;;;;;;1.50;0.77;;;15.70;99.90;;;;;;4993089;28;20207;-66
2022/09/08 03:51:26;;;;;;;1.60;0.80;;;15.70;99.90;;;;;;4993425;28;20191;-67
2022/09/08 03:54:46;;;;;;;1.50;0.80;;;15.70;99.90;;;;;;5010393;28;20187;-67
2022/09/08 03:56:40;;;;;;;2.60;1.20;;;15.70;99.90;;;;;;5009917;28;20186;-67
2022/09/08 03:59:06;;;;;;;1.70;0.70;;;15.70;99.90;;;;;;4992932;28;20465;-67
2022/09/08 04:01:33;;;;;;;1.47;0.70;;;15.70;99.90;;;;;;4992547;28;20958;-67
2022/09/08 04:03:58;;;;;;;1.30;0.53;;;15.60;99.90;;;;;;4993002;28;20182;-67
2022/09/08 04:06:24;;;;;;;3.30;0.93;;;15.60;99.90;;;;;;4993041;28;20415;-67
2022/09/08 04:08:49;;;;;;;1.77;0.60;;;15.60;99.90;;;;;;4993041;28;20211;-66
2022/09/08 04:11:15;;;;;;;2.43;0.70;;;15.60;99.90;;;;;;4992466;28;20262;-67
2022/09/08 04:13:41;;;;;;;1.30;0.60;;;15.60;99.90;;;;;;4992710;28;20223;-67
2022/09/08 04:16:07;;;;;;;2.47;0.80;;;15.50;99.90;;;;;;4992935;28;20190;-67
2022/09/08 04:18:33;;;;;;;2.37;0.83;;;15.50;99.90;;;;;;4992689;28;20372;-67
2022/09/08 04:21:00;;;;;;;1.50;0.60;;;15.50;99.90;;;;;;4992582;28;20947;-67
2022/09/08 04:23:27;;;;;;;1.50;0.67;;;15.50;99.90;;;;;;4992522;28;20226;-67
2022/09/08 04:26:01;;;;;;;1.70;0.80;;;15.50;99.90;;;;;;4992841;28;20422;-66
2022/09/08 04:28:27;;;;;;;1.60;0.83;;;15.50;99.90;;;;;;4992353;28;20422;-67
2022/09/08 04:30:53;;;;;;;1.47;0.60;;;15.50;99.90;;;;;;4992491;28;20446;-67
2022/09/08 04:33:18;;;;;;;1.37;0.67;;;15.50;99.90;;;;;;4992166;28;20431;-67
2022/09/08 04:35:44;;;;;;;1.50;0.63;;;15.50;99.90;;;;;;4992726;28;20211;-67
2022/09/08 04:38:10;;;;;;;1.40;0.60;;;15.40;99.90;;;;;;4992428;28;20223;-67
2022/09/08 04:40:35;;;;;;;1.60;0.60;;;15.50;99.90;;;;;;4991290;28;20525;-67
2022/09/08 04:43:01;;;;;;;1.90;0.70;;;15.40;99.90;;;;;;5005281;28;20219;-67
2022/09/08 04:45:27;;;;;;;1.50;0.60;;;15.40;99.90;;;;;;4997488;28;20202;-67
2022/09/08 04:47:52;;;;;;;1.30;0.60;;;15.40;99.90;;;;;;5008016;28;20278;-67
2022/09/08 04:50:18;;;;;;;1.50;0.70;;;15.40;99.90;;;;;;4995553;28;20192;-67
2022/09/08 04:52:43;;;;;;;1.50;0.70;;;15.40;99.90;;;;;;4991888;28;20813;-66
2022/09/08 04:55:10;;;;;;;1.40;0.63;;;15.40;99.90;;;;;;4992144;28;20230;-67
2022/09/08 04:57:36;;;;;;;1.60;0.90;;;15.40;99.90;;;;;;4995769;28;20238;-67
2022/09/08 05:00:04;;;;;;;2.07;0.70;;;15.40;99.90;;;;;;4996118;28;20458;-67
2022/09/08 05:02:30;;;;;;;2.10;1.10;;;15.40;99.90;;;;;;4995884;28;20552;-67
2022/09/08 05:04:56;;;;;;;3.57;1.10;;;15.40;99.90;;;;;;4996374;28;21096;-67
2022/09/08 05:07:22;;;;;;;2.27;1.07;;;15.50;99.90;;;;;;4996102;28;20418;-67
2022/09/08 05:09:47;;;;;;;2.00;0.80;;;15.40;99.90;;;;;;4995839;28;20183;-67
2022/09/08 05:12:13;;;;;;;1.40;0.60;;;15.40;99.90;;;;;;4995153;28;20187;-66
2022/09/08 05:14:38;;;;;;;2.57;1.10;;;15.40;99.90;;;;;;4996122;28;20266;-67
2022/09/08 05:17:04;;;;;;;2.10;0.93;;;15.40;99.90;;;;;;4995996;28;20258;-66
2022/09/08 05:19:31;;;;;;;1.90;1.00;;;15.40;99.90;;;;;;4995868;28;20211;-67
2022/09/08 05:21:56;;;;;;;1.67;1.00;;;15.40;99.90;;;;;;4995459;28;20187;-67
2022/09/08 05:24:22;;;;;;;2.90;1.03;;;15.40;99.90;;;;;;4995807;28;20414;-67
2022/09/08 05:26:48;;;;;;;1.53;0.83;;;15.40;99.90;;;;;;4995980;28;20187;-67
2022/09/08 05:29:13;;;;;;;1.67;0.80;;;15.40;99.90;;;;;;4995466;28;20188;-66
2022/09/08 05:31:39;;;;;;;1.40;0.53;;;15.40;99.90;;;;;;4997838;28;20184;-67
2022/09/08 05:34:04;;;;;;;1.60;0.70;;;15.40;99.90;;;;;;5015192;28;20581;-67
2022/09/08 05:36:35;;;;;;;4.23;1.63;;;15.40;99.90;;;;;;5015580;28;20198;-67
2022/09/08 05:39:02;;;;;;;1.60;0.93;;;15.40;99.90;;;;;;5013947;28;20215;-67
2022/09/08 05:41:30;;;;;;;2.57;0.80;;;15.40;99.90;;;;;;5014874;28;20588;-67
2022/09/08 05:43:57;;;;;;;1.93;0.70;;;15.40;99.90;;;;;;5010233;28;20423;-66
2022/09/08 05:46:27;;;;;;;2.80;0.80;;;15.30;99.90;;;;;;4997006;28;20845;-67
2022/09/08 05:48:57;;;;;;;2.43;0.57;;;15.30;99.90;;;;;;5009704;28;20429;-67
2022/09/08 05:51:23;;;;;;;1.73;0.70;;;15.30;99.90;;;;;;4995313;28;20427;-67
2022/09/08 05:53:49;;;;;;;1.30;0.50;;;15.20;99.90;;;;;;4995390;28;20462;-67
2022/09/08 05:56:18;;;;;;;1.40;0.70;;;15.20;99.90;;;;;;4998585;28;20418;-67
2022/09/08 05:58:51;;;;;;;2.20;0.80;;;15.20;99.90;;;;;;4994922;28;20211;-67
2022/09/08 06:01:17;;;;;;;2.70;0.60;;;15.20;99.90;;;;;;4994774;28;20496;-67
2022/09/08 06:03:42;;;;;;;1.63;0.90;;;15.20;99.90;;;;;;4994749;28;20529;-67
2022/09/08 06:06:13;;;;;;;1.50;0.67;;;15.20;99.90;;;;;;4995106;28;20216;-67
2022/09/08 06:08:40;;;;;;;1.77;0.60;;;15.10;99.90;;;;;;5001459;28;20175;-67
2022/09/08 06:11:06;;;;;;;1.20;0.53;;;15.10;99.90;;;;;;5005982;28;20934;-67
2022/09/08 06:13:33;;;;;;;1.20;0.40;;;15.10;99.90;;;;;;4993048;28;20450;-67
2022/09/08 06:16:14;;;;;;;2.90;0.90;;;15.00;99.90;;;;;;4993807;28;20415;-67
2022/09/08 06:18:42;;;;;;;1.93;0.73;;;15.00;99.90;;;;;;4993617;28;20528;-67
2022/09/08 06:21:20;;;;;;;1.40;0.60;;;15.00;99.90;;;;;;4994127;28;20419;-67
2022/09/08 06:23:50;;;;;;;2.40;0.67;;;15.00;99.90;;;;;;5013883;28;20450;-67
2022/09/08 06:26:16;;;;;;;1.70;0.80;;;15.00;99.90;;;;;;5013668;28;20424;-67
2022/09/08 06:28:50;;;;;;;4.30;0.77;;;15.00;99.90;;;;;;5013944;28;20422;-67
2022/09/08 06:31:21;;;;;;;1.67;0.67;;;15.00;99.90;;;;;;5013844;28;20630;-67
2022/09/08 06:33:48;;;;;;;2.33;0.80;;;15.00;99.90;;;;;;5014154;28;20420;-67
2022/09/08 06:36:25;;;;;;;1.33;0.60;;;14.90;99.90;;;;;;5006398;28;20423;-68
2022/09/08 06:39:04;;;;;;;1.40;0.63;;;14.90;99.90;;;;;;5008990;28;20484;-68
2022/09/08 06:41:36;;;;;;;1.40;0.60;;;14.90;99.90;;;;;;5013545;28;20496;-67
2022/09/08 06:44:04;;;;;;;1.70;0.70;;;14.80;99.90;;;;;;5007934;28;20423;-67
2022/09/08 06:46:33;;;;;;;2.20;0.60;;;14.80;99.90;;;;;;4994354;28;20419;-67
2022/09/08 06:48:59;;;;;;;2.90;1.07;;;14.80;99.90;;;;;;4994207;28;21071;-67
2022/09/08 06:51:33;;;;;;;3.70;0.60;;;14.90;99.90;;;;;;4993820;28;20431;-67
2022/09/08 06:54:18;;;;;;;2.30;1.00;;;14.90;99.90;;;;;;5001839;28;20213;-66
2022/09/08 06:56:55;;;;;;;1.50;0.67;;;15.00;99.90;;;;;;5010143;28;21082;-66
2022/09/08 06:59:50;;;;;;;1.30;0.50;;;15.00;99.90;;;;;;4994173;28;20462;-66
2022/09/08 07:02:42;;;;;;;1.30;0.50;;;15.00;99.90;;;;;;5002198;28;20942;-66
2022/09/08 07:05:45;;;;;;;1.63;0.67;;;15.00;99.90;;;;;;5008291;28;20443;-66
2022/09/08 07:08:33;;;;;;;1.20;0.50;;;15.10;99.90;;;;;;5011086;28;20422;-67
2022/09/08 07:11:16;;;;;;;1.40;0.70;;;15.10;99.90;;;;;;5013208;28;20447;-67
2022/09/08 07:13:53;;;;;;;1.40;0.70;;;15.20;99.90;;;;;;5013130;28;20433;-67
2022/09/08 07:16:40;;;;;;;2.17;0.60;;;15.20;99.90;;;;;;5013517;28;20512;-67
2022/09/08 07:19:12;;;;;;;1.33;0.60;;;15.30;99.90;;;;;;5013468;28;20815;-67
2022/09/08 07:21:41;;;;;;;1.30;0.60;;;15.30;99.90;;;;;;5012276;28;20501;-66
2022/09/08 07:24:12;;;;;;;1.50;0.67;;;15.30;99.90;;;;;;5013550;28;20422;-66
2022/09/08 07:26:46;;;;;;;2.13;1.00;;;15.40;99.90;;;;;;5013077;28;20445;-66
2022/09/08 07:29:19;;;;;;;2.00;0.60;;;15.50;99.90;;;;;;5012656;28;20801;-66
2022/09/08 07:31:49;;;;;;;2.70;1.17;;;15.70;99.90;;;;;;5012744;28;20418;-66
2022/09/08 07:34:19;;;;;;;1.30;0.60;;;16.20;99.90;;;;;;5013190;28;20509;-66
2022/09/08 07:36:58;;;;;;;3.40;0.93;;;16.60;99.90;;;;;;5013179;28;20448;-66
2022/09/08 07:39:37;;;;;;;5.20;0.80;;;16.60;99.90;;;;;;5011809;28;20465;-64
2022/09/08 07:42:05;;;;;;;1.40;0.50;;;16.60;99.90;;;;;;5012043;28;20430;-63
2022/09/08 07:44:33;;;;;;;1.93;0.57;;;16.50;99.90;;;;;;5003273;28;20423;-63
2022/09/08 07:47:17;;;;;;;1.23;0.47;;;16.50;99.90;;;;;;4992998;28;20469;-63
2022/09/08 07:50:16;;;;;;;1.80;0.60;;;16.50;99.90;;;;;;4993383;28;20438;-63
2022/09/08 07:52:58;;;;;;;1.80;0.50;;;16.40;99.90;;;;;;4992704;28;20514;-65
2022/09/08 07:55:38;;;;;;;1.40;0.60;;;16.40;99.90;;;;;;4992978;28;20423;-65
2022/09/08 07:58:19;;;;;;;1.50;0.60;;;17.20;99.90;;;;;;4996666;28;20493;-66
2022/09/08 08:01:18;;;;;;;2.17;0.80;;;18.30;99.90;;;;;;5001095;28;20918;-66
2022/09/08 08:03:50;;;;;;;1.60;0.70;;;18.20;99.90;;;;;;5012457;28;20922;-66
2022/09/08 08:06:36;;;;;;;2.03;1.00;;;18.00;99.90;;;;;;5012595;28;20441;-66
2022/09/08 08:09:38;;;;;;;2.27;0.73;;;17.70;99.90;;;;;;5012615;28;20426;-66
2022/09/08 08:12:25;;;;;;;2.33;0.50;;;17.80;99.90;;;;;;5011121;28;20432;-66
2022/09/08 08:15:19;;;;;;;2.10;0.70;;;18.60;99.90;;;;;;5012234;28;20426;-66
2022/09/08 08:17:50;;;;;;;2.20;1.10;;;19.60;99.90;;;;;;5012150;28;20467;-66
2022/09/08 08:20:28;;;;;;;1.37;0.60;;;20.70;99.90;;;;;;5012346;28;20899;-66
2022/09/08 08:23:22;;;;;;;1.70;0.60;;;21.00;99.90;;;;;;5011800;28;20449;-66
2022/09/08 08:25:58;;;;;;;1.80;0.80;;;21.20;99.90;;;;;;5012145;28;20472;-66
2022/09/08 08:28:24;;;;;;;1.67;0.60;;;21.40;99.90;;;;;;5011774;28;20417;-66
2022/09/08 08:31:25;;;;;;;1.60;0.60;;;21.40;99.90;;;;;;5011898;28;20906;-67
2022/09/08 08:34:00;;;;;;;1.50;0.60;;;21.60;99.90;;;;;;5012345;28;20627;-67
2022/09/08 08:36:29;;;;;;;1.83;0.77;;;21.80;99.90;;;;;;5012268;28;20448;-66
2022/09/08 08:39:17;;;;;;;3.00;0.60;;;22.10;99.70;;;;;;5010745;28;20552;-66
2022/09/08 08:41:46;;;;;;;2.03;0.80;;;21.50;99.90;;;;;;5011805;28;20875;-66
2022/09/08 08:44:24;;;;;;;1.70;0.60;;;21.30;99.90;;;;;;5004804;28;20752;-66
2022/09/08 08:47:20;;;;;;;1.40;0.60;;;21.30;99.90;;;;;;4992457;28;20770;-66
2022/09/08 08:50:17;;;;;;;1.63;0.80;;;20.40;99.90;;;;;;5005319;28;20414;-66
2022/09/08 08:53:17;;;;;;;1.63;0.60;;;19.60;99.90;;;;;;4999593;28;20433;-66
2022/09/08 08:56:17;;;;;;;1.60;0.60;;;19.50;99.90;;;;;;4992384;28;20431;-66
2022/09/08 08:59:08;;;;;;;1.73;0.70;;;19.80;99.90;;;;;;4997538;28;20885;-66
2022/09/08 09:02:11;;;;;;;1.97;0.70;;;19.70;99.90;;;;;;4998238;28;20446;-67
2022/09/08 09:05:14;;;;;;;1.80;0.90;;;20.50;99.90;;;;;;5011903;28;20936;-67
2022/09/08 09:08:10;;;;;;;3.40;0.90;;;20.70;99.90;;;;;;5011724;28;20970;-67
2022/09/08 09:11:03;;;;;;;2.23;1.10;;;20.30;99.90;;;;;;4992367;28;20422;-66
2022/09/08 09:13:44;;;;;;;5.00;0.60;;;19.80;99.90;;;;;;4999256;28;20826;-66
2022/09/08 09:16:27;;;;;;;1.30;0.57;;;19.50;99.90;;;;;;5011446;28;20504;-66
2022/09/08 09:19:24;;;;;;;3.70;0.80;;;19.30;99.90;;;;;;5011741;28;20465;-66
2022/09/08 09:21:58;;;;;;;2.07;0.60;;;19.10;99.90;;;;;;5011376;28;20414;-66
2022/09/08 09:24:36;;;;;;;6.93;0.80;;;19.10;99.90;;;;;;4998678;28;20425;-66
2022/09/08 09:27:16;;;;;;;1.93;0.83;;;19.00;99.90;;;;;;5011388;28;20434;-66
2022/09/08 09:29:42;;;;;;;1.83;0.67;;;18.80;99.90;;;;;;5004750;28;20419;-66
2022/09/08 09:32:42;;;;;;;2.27;0.87;;;18.80;99.90;;;;;;4991608;28;20445;-67
2022/09/08 09:35:45;;;;;;;3.00;1.20;;;19.00;99.90;;;;;;4992145;28;20656;-66
2022/09/08 09:38:14;;;;;;;1.70;0.90;;;19.10;99.90;;;;;;5002014;28;20480;-67
2022/09/08 09:40:45;;;;;;;2.87;1.07;;;19.40;99.90;;;;;;5010265;28;20508;-67
2022/09/08 09:43:17;;;;;;;1.87;0.97;;;20.00;99.90;;;;;;5010646;28;20418;-67
2022/09/08 09:46:01;;;;;;;3.00;0.83;;;20.50;99.90;;;;;;4998699;28;20421;-67
2022/09/08 09:48:40;;;;;;;2.80;0.70;;;20.50;99.90;;;;;;5007938;28;20422;-66
2022/09/08 09:51:32;;;;;;;2.23;0.80;;;20.60;99.90;;;;;;4993524;28;20426;-66
2022/09/08 09:54:18;;;;;;;2.10;0.70;;;20.40;99.90;;;;;;5005362;28;21216;-67
2022/09/08 09:57:08;;;;;;;1.80;0.70;;;20.20;99.90;;;;;;5007030;28;20961;-67
2022/09/08 10:00:17;;;;;;;1.40;0.50;;;19.80;99.90;;;;;;4994201;28;20966;-66
2022/09/08 10:03:12;;;;;;;1.87;0.63;;;19.60;99.90;;;;;;4993403;28;20970;-66
2022/09/08 10:05:57;;;;;;;3.73;0.57;;;19.50;99.90;;;;;;4999076;28;20404;-67
2022/09/08 10:09:00;;;;;;;2.13;0.70;;;19.50;99.90;;;;;;5012157;28;20421;-66
2022/09/08 10:11:32;;;;;;;1.50;0.60;;;19.60;99.90;;;;;;5012862;28;20429;-66
2022/09/08 10:14:12;;;;;;;1.50;0.60;;;19.70;99.90;;;;;;5008020;28;20488;-67
2022/09/08 10:17:19;;;;;;;1.80;0.70;;;19.80;99.90;;;;;;5007078;28;20419;-66
2022/09/08 10:20:06;;;;;;;1.40;0.60;;;19.90;99.90;;;;;;5009958;28;20557;-66
2022/09/08 10:22:50;;;;;;;1.50;0.63;;;19.90;99.90;;;;;;5011226;28;20430;-66
2022/09/08 10:25:39;;;;;;;1.60;0.60;;;19.90;99.90;;;;;;5007649;28;20427;-66
2022/09/08 10:28:42;;;;;;;1.40;0.50;;;19.70;99.90;;;;;;5000477;28;20507;-67
2022/09/08 10:31:44;;;;;;;2.23;0.63;;;19.70;99.90;;;;;;5012472;28;20429;-66
2022/09/08 10:34:52;;;;;;;1.90;0.80;;;19.80;99.50;;;;;;4999912;28;20786;-67
2022/09/08 10:37:17;;;;;;;2.17;0.70;;;19.70;99.90;;;;;;5012705;28;20429;-66
2022/09/08 10:40:04;;;;;;;1.50;0.70;;;19.60;99.50;;;;;;5011859;28;20470;-66
2022/09/08 10:42:58;;;;;;;1.30;0.50;;;19.50;99.90;;;;;;5011529;28;20560;-66
2022/09/08 10:45:36;;;;;;;2.17;0.70;;;19.30;99.40;;;;;;4988499;28;20468;-67
2022/09/08 10:48:28;;;;;;;1.37;0.57;;;19.30;99.60;;;;;;4992799;28;21117;-67
2022/09/08 10:51:13;;;;;;;1.83;0.77;;;19.30;99.90;;;;;;4992964;28;20422;-66
2022/09/08 10:53:47;;;;;;;1.47;0.73;;;19.30;98.90;;;;;;4992844;28;20423;-66
2022/09/08 10:56:26;;;;;;;1.80;0.70;;;19.30;99.20;;;;;;4995079;28;20417;-66
2022/09/08 10:58:51;;;;;;;1.77;0.70;;;19.40;99.00;;;;;;4991907;28;20463;-66
2022/09/08 11:01:45;;;;;;;2.57;1.03;;;19.60;98.80;;;;;;4992303;28;20948;-66
2022/09/08 11:04:17;;;;;;;1.40;0.60;;;20.10;99.20;;;;;;4992362;28;20645;-66
2022/09/08 11:07:20;;;;;;;1.90;0.60;;;20.40;99.20;;;;;;4992754;28;20418;-66
2022/09/08 11:10:30;;;;;;;1.90;0.70;;;20.40;98.90;;;;;;4992551;28;20885;-66
2022/09/08 11:13:21;;;;;;;2.33;0.80;;;20.70;98.30;;;;;;4991346;28;20453;-66
2022/09/08 11:16:18;;;;;;;6.03;0.73;;;20.80;98.50;;;;;;4992630;28;20450;-66
2022/09/08 11:18:43;;;;;;;4.80;0.63;;;21.10;98.50;;;;;;5002394;28;20501;-66
2022/09/08 11:21:28;;;;;;;1.80;0.70;;;21.30;97.00;;;;;;5011505;28;20819;-66
2022/09/08 11:24:12;;;;;;;1.70;0.60;;;21.10;96.40;;;;;;5011703;28;20511;-66
2022/09/08 11:26:51;;;;;;;1.50;0.70;;;20.90;95.80;;;;;;5011872;28;20422;-66
2022/09/08 11:29:17;;;;;;;1.97;0.80;;;20.90;97.00;;;;;;5008071;28;20423;-65
2022/09/08 11:32:07;;;;;;;1.40;0.50;;;20.90;96.40;;;;;;5001446;28;20425;-66
2022/09/08 11:34:33;;;;;;;2.27;0.73;;;21.10;96.90;;;;;;5011813;28;20648;-66
2022/09/08 11:37:04;;;;;;;2.23;0.87;;;21.20;96.20;;;;;;5011478;28;20448;-66
2022/09/08 11:39:55;;;;;;;1.50;0.50;;;21.30;95.00;;;;;;5011187;28;20210;-66
2022/09/08 11:42:49;;;;;;;1.50;0.53;;;21.00;95.30;;;;;;4999864;28;20414;-66
2022/09/08 11:45:29;;;;;;;3.10;1.10;;;20.80;96.00;;;;;;5010106;28;20430;-66
2022/09/08 11:48:04;;;;;;;1.80;0.70;;;20.60;95.40;;;;;;5011554;28;20425;-66
2022/09/08 11:50:35;;;;;;;2.13;0.80;;;20.70;95.80;;;;;;4992926;28;20445;-66
2022/09/08 11:53:03;;;;;;;3.60;0.97;;;20.50;95.90;;;;;;4991494;28;20419;-66
2022/09/08 11:56:03;;;;;;;1.40;0.57;;;20.50;96.00;;;;;;4998342;28;20422;-66
2022/09/08 11:59:01;;;;;;;2.10;0.80;;;20.30;96.60;;;;;;5009196;28;20461;-66
2022/09/08 12:01:39;;;;;;;2.83;0.77;;;20.00;98.80;;;;;;5007744;28;20430;-66
2022/09/08 12:04:30;;;;;;;5.20;0.90;;;19.70;99.90;;;;;;5004555;28;20414;-66
2022/09/08 12:07:11;;;;;;;2.47;0.70;;;19.50;99.90;;;;;;5000538;28;20414;-66
2022/09/08 12:10:14;;;;;;;1.60;0.67;;;19.40;99.90;;;;;;5012472;28;20406;-66
2022/09/08 12:12:59;;;;;;;3.43;0.83;;;19.30;99.90;;;;;;5011428;28;20441;-66
2022/09/08 12:15:52;;;;;;;1.87;0.70;;;19.40;99.90;;;;;;5012711;28;20422;-66
2022/09/08 12:18:42;;;;;;;1.90;0.50;;;19.90;99.90;;;;;;5011873;28;20512;-66
2022/09/08 12:21:32;;;;;;;1.60;0.60;;;20.40;99.60;;;;;;5007596;28;20430;-66
2022/09/08 12:24:35;;;;;;;5.00;0.60;;;20.80;98.30;;;;;;4992661;28;20871;-66
2022/09/08 12:27:36;;;;;;;1.30;0.50;;;20.80;97.90;;;;;;4992184;28;20425;-66
2022/09/08 12:30:17;;;;;;;1.53;0.57;;;21.20;96.70;;;;;;4998774;28;20410;-66
2022/09/08 12:33:06;;;;;;;1.43;0.70;;;21.40;96.80;;;;;;4994847;28;20465;-66
2022/09/08 12:35:46;;;;;;;1.33;0.50;;;21.60;94.80;;;;;;4992422;28;20419;-66
2022/09/08 12:38:39;;;;;;;1.70;0.47;;;21.70;95.20;;;;;;4992462;28;20470;-69
2022/09/08 12:41:23;;;;;;;1.90;0.77;;;21.90;95.00;;;;;;4999953;28;20422;-69
2022/09/08 12:44:19;;;;;;;1.83;0.60;;;22.10;93.70;;;;;;5011535;28;20418;-70
2022/09/08 12:47:10;;;;;;;1.70;0.60;;;22.10;92.50;;;;;;4991981;28;20427;-68
2022/09/08 12:50:14;;;;;;;1.50;0.60;;;21.90;94.60;;;;;;4992531;28;20410;-69
2022/09/08 12:53:03;;;;;;;1.50;0.67;;;21.90;93.60;;;;;;4991070;28;20532;-69
2022/09/08 12:56:04;;;;;;;5.20;1.20;;;21.50;93.70;;;;;;4999016;28;20438;-69
2022/09/08 12:58:49;;;;;;;1.97;0.63;;;21.50;93.80;;;;;;4990740;28;20561;-68
2022/09/08 13:01:40;;;;;;;1.90;0.60;;;21.90;93.70;;;;;;5009882;28;20422;-69
2022/09/08 13:04:21;;;;;;;5.73;1.43;;;22.40;93.80;;;;;;5011026;28;20954;-69
2022/09/08 13:06:57;;;;;;;4.60;1.00;;;22.80;93.10;;;;;;4992490;28;20422;-69
2022/09/08 13:09:26;;;;;;;2.10;0.63;;;22.70;92.30;;;;;;4992298;28;20509;-69
2022/09/08 13:12:04;;;;;;;1.50;0.60;;;22.40;92.00;;;;;;4991615;28;20806;-69
2022/09/08 13:14:58;;;;;;;1.97;0.70;;;22.40;92.40;;;;;;4992409;28;20426;-69
2022/09/08 13:17:48;;;;;;;2.27;0.90;;;22.00;92.30;;;;;;4995620;28;20421;-69
2022/09/08 13:20:24;;;;;;;2.67;0.60;;;21.60;92.60;;;;;;4994608;28;20438;-70
2022/09/08 13:23:20;;;;;;;2.33;0.70;;;21.90;91.80;;;;;;5014864;28;20472;-69
2022/09/08 13:26:16;;;;;;;2.47;0.80;;;22.80;90.60;;;;;;4999238;28;20891;-67
2022/09/08 13:29:06;;;;;;;1.70;0.90;;;23.30;90.10;;;;;;5014835;28;20421;-67
2022/09/08 13:31:37;;;;;;;5.50;0.70;;;23.00;90.80;;;;;;5014938;28;20413;-67
2022/09/08 13:34:15;;;;;;;1.30;0.50;;;23.00;91.40;;;;;;5015404;28;20979;-67
2022/09/08 13:36:53;;;;;;;5.33;0.53;;;22.70;92.10;;;;;;5015279;28;20421;-66